Time;durP1;ratioP1;P1;durP2;ratioP2;P2;SDS_P1;SDS_P2;PMS_P1;PMS_P2;Temp;Humidity;BMP_temperature;BMP_pressure;BME280_temperature;BME280_humidity;BME280_pressure;Samples;Min_cycle;Max_cycle;Signal;HPM_P1;HPM_P2
2022/10/22 00:01:07;;;;;;;28.77;16.17;;;;;;;11.33;99.51;98329.00;5028102;28;20021;-86
2022/10/22 00:03:32;;;;;;;30.30;17.20;;;;;;;11.01;100.00;98291.81;5029057;28;20029;-86
2022/10/22 00:05:58;;;;;;;24.88;18.00;;;;;;;10.95;100.00;98313.44;5011883;28;20044;-85
2022/10/22 00:08:23;;;;;;;28.08;18.50;;;;;;;10.35;100.00;98239.34;5043999;28;20037;-86
2022/10/22 00:10:48;;;;;;;31.27;19.60;;;;;;;10.76;100.00;98312.31;5031499;28;20484;-86
2022/10/22 00:13:14;;;;;;;28.10;19.33;;;;;;;10.64;100.00;98301.09;5016784;28;20083;-86
2022/10/22 00:15:39;;;;;;;25.10;18.33;;;;;;;10.85;100.00;98313.41;5047030;28;20040;-86
2022/10/22 00:18:05;;;;;;;30.05;19.38;;;;;;;10.77;100.00;98304.03;5030696;28;20044;-86
2022/10/22 00:20:30;;;;;;;31.00;20.17;;;;;;;10.66;100.00;98317.63;5043659;28;20104;-86
2022/10/22 00:22:56;;;;;;;11.23;9.82;;;;;;;11.11;97.33;98302.53;5031024;28;20028;-86
2022/10/22 00:25:23;;;;;;;10.57;8.75;;;;;;;11.38;93.69;98323.66;5050764;28;20040;-86
2022/10/22 00:27:48;;;;;;;10.70;8.60;;;;;;;11.31;93.29;98307.09;5013610;28;20120;-86
2022/10/22 00:30:17;;;;;;;10.07;7.75;;;;;;;11.56;92.24;98325.00;5015507;28;20121;-86
2022/10/22 00:32:42;;;;;;;19.95;14.20;;;;;;;11.43;92.69;98330.88;5042060;28;20091;-86
2022/10/22 00:35:07;;;;;;;9.20;7.75;;;;;;;11.39;93.20;98338.63;5043343;28;20037;-86
2022/10/22 00:37:33;;;;;;;9.05;8.15;;;;;;;11.57;92.16;98343.47;5047727;28;20094;-86
2022/10/22 00:39:58;;;;;;;8.93;7.72;;;;;;;11.10;91.99;98252.84;5050103;28;20635;-86
2022/10/22 00:42:25;;;;;;;6.55;5.80;;;;;;;11.69;90.93;98346.69;5051015;28;20040;-86
2022/10/22 00:45:09;;;;;;;8.18;7.03;;;;;;;11.71;90.63;98360.59;5029509;28;20408;-86
2022/10/22 00:47:40;;;;;;;10.30;8.30;;;;;;;11.49;92.83;98357.31;5047967;28;20115;-86
2022/10/22 00:50:13;;;;;;;10.27;7.30;;;;;;;11.68;91.10;98361.13;5044251;28;20108;-86
2022/10/22 00:52:38;;;;;;;23.38;13.52;;;;;;;11.43;92.37;98352.25;5047339;28;20039;-86
2022/10/22 00:55:05;;;;;;;11.00;7.95;;;;;;;11.52;92.29;98351.47;5046419;28;20029;-86
2022/10/22 00:57:30;;;;;;;10.38;7.50;;;;;;;11.39;92.77;98335.94;5044915;28;20473;-87
2022/10/22 00:59:56;;;;;;;8.43;7.28;;;;;;;11.62;90.95;98345.34;5019508;28;20120;-86
2022/10/22 01:02:22;;;;;;;10.40;7.95;;;;;;;11.66;91.00;98376.63;5031698;28;20067;-87
2022/10/22 01:04:48;;;;;;;10.00;7.68;;;;;;;11.64;91.58;98364.56;5043146;28;20067;-86
2022/10/22 01:07:19;;;;;;;13.55;10.18;;;;;;;11.62;91.23;98359.47;5041754;28;20110;-86
2022/10/22 01:10:06;;;;;;;8.90;7.20;;;;;;;11.62;91.08;98354.13;5041483;28;20421;-87
2022/10/22 01:12:50;;;;;;;14.23;11.75;;;;;;;11.36;94.04;98357.06;5048479;28;20033;-86
2022/10/22 01:15:27;;;;;;;9.52;7.47;;;;;;;11.59;91.51;98343.19;5049706;28;20366;-87
2022/10/22 01:18:16;;;;;;;20.52;15.25;;;;;;;10.89;96.95;98327.84;5046511;28;20059;-87
2022/10/22 01:20:57;;;;;;;11.88;8.50;;;;;;;11.41;92.70;98349.84;5031365;28;20036;-87
2022/10/22 01:23:41;;;;;;;11.27;8.02;;;;;;;11.59;91.31;98343.19;5044703;28;20109;-86
2022/10/22 01:26:35;;;;;;;8.45;7.47;;;;;;;11.32;92.93;98327.38;5049194;28;20021;-86
2022/10/22 01:29:14;;;;;;;24.45;16.50;;;;;;;10.81;97.33;98318.47;5049163;28;20033;-86
2022/10/22 01:31:46;;;;;;;21.42;15.57;;;;;;;10.59;99.20;98317.06;5029021;28;20029;-86
2022/10/22 01:34:16;;;;;;;12.45;8.95;;;;;;;10.83;97.07;98304.88;5042750;28;20493;-86
2022/10/22 01:36:44;;;;;;;10.18;8.25;;;;;;;11.30;92.34;98321.50;5038943;28;20035;-87
2022/10/22 01:39:11;;;;;;;8.88;7.32;;;;;;;10.91;92.86;98265.09;5048095;28;20425;-87
2022/10/22 01:41:38;;;;;;;9.20;7.90;;;;;;;11.54;91.30;98324.47;5047310;28;20027;-86
2022/10/22 01:44:04;;;;;;;9.75;7.82;;;;;;;11.23;90.90;98284.38;5042753;28;20029;-86
2022/10/22 01:46:29;;;;;;;10.52;7.97;;;;;;;11.30;90.45;98276.91;5048236;28;20036;-86
2022/10/22 01:49:27;;;;;;;8.07;7.07;;;;;;;11.55;90.39;98299.34;5031550;28;20425;-86
2022/10/22 01:52:08;;;;;;;11.18;6.68;;;;;;;11.46;90.25;98298.28;5042568;28;20091;-86
2022/10/22 01:54:37;;;;;;;10.00;7.50;;;;;;;11.64;90.49;98332.50;5046902;28;20075;-86
2022/10/22 01:57:50;;;;;;;8.93;7.15;;;;;;;11.48;90.58;98310.31;5043976;28;20484;-86
2022/10/22 02:00:17;;;;;;;7.70;6.40;;;;;;;11.53;90.57;98320.97;5009848;28;20029;-87
2022/10/22 02:02:59;;;;;;;11.20;8.15;;;;;;;11.54;90.86;98316.44;5044895;28;20087;-87
2022/10/22 02:05:32;;;;;;;9.25;7.43;;;;;;;11.63;91.05;98326.34;5044303;28;20100;-86
2022/10/22 02:08:20;;;;;;;10.60;7.88;;;;;;;11.53;90.94;98318.31;5042287;28;20090;-86
2022/10/22 02:10:48;;;;;;;8.32;7.38;;;;;;;11.53;90.70;98312.19;5036710;28;20124;-86
2022/10/22 02:13:35;;;;;;;9.98;8.45;;;;;;;11.59;90.68;98327.16;5043913;28;20079;-86
2022/10/22 02:16:03;;;;;;;9.48;8.38;;;;;;;11.49;90.36;98309.22;5042095;28;20029;-86
2022/10/22 02:18:31;;;;;;;10.15;8.13;;;;;;;11.30;90.61;98284.91;5045033;28;20033;-86
2022/10/22 02:20:58;;;;;;;17.52;13.63;;;;;;;11.41;91.73;98315.09;5044227;28;20063;-86
2022/10/22 02:23:25;;;;;;;11.38;9.70;;;;;;;11.16;93.53;98299.84;5035824;28;20054;-86
2022/10/22 02:25:58;;;;;;;10.40;7.13;;;;;;;11.48;91.92;98322.88;5053693;28;20021;-86
2022/10/22 02:29:14;;;;;;;8.50;7.05;;;;;;;11.30;92.35;98330.34;5053519;28;20473;-86
2022/10/22 02:31:43;;;;;;;18.75;13.32;;;;;;;11.04;94.50;98333.22;5006425;28;20396;-86
2022/10/22 02:34:13;;;;;;;12.15;7.93;;;;;;;11.38;91.67;98330.88;5047920;28;20033;-86
2022/10/22 02:36:42;;;;;;;9.68;7.60;;;;;;;11.35;90.65;98312.69;5039143;28;20550;-86
2022/10/22 02:39:08;;;;;;;9.70;7.65;;;;;;;11.48;90.77;98333.56;5046163;28;20075;-86
2022/10/22 02:41:35;;;;;;;11.25;7.50;;;;;;;11.46;90.28;98323.13;5054675;28;20055;-86
2022/10/22 02:44:01;;;;;;;18.98;14.43;;;;;;;10.91;94.15;98325.72;5049682;28;20075;-86
2022/10/22 02:46:27;;;;;;;22.50;16.08;;;;;;;9.67;98.64;98221.66;5035061;28;20123;-86
2022/10/22 02:48:53;;;;;;;13.18;9.35;;;;;;;10.74;93.59;98285.91;5049552;28;20100;-86
2022/10/22 02:51:18;;;;;;;28.25;15.90;;;;;;;10.43;97.12;98325.00;5041640;28;20079;-87
2022/10/22 02:53:44;;;;;;;10.75;8.85;;;;;;;11.16;92.95;98339.91;5015501;28;20029;-86
2022/10/22 02:56:10;;;;;;;11.18;8.80;;;;;;;11.28;91.29;98342.34;5047942;28;20025;-87
2022/10/22 02:58:36;;;;;;;12.50;8.68;;;;;;;11.03;91.19;98292.34;5051851;28;20107;-87
2022/10/22 03:01:01;;;;;;;10.35;7.82;;;;;;;11.39;90.72;98349.31;5032554;28;20429;-86
2022/10/22 03:03:26;;;;;;;11.25;7.93;;;;;;;11.26;89.88;98313.25;5043834;28;20539;-87
2022/10/22 03:05:52;;;;;;;9.65;7.95;;;;;;;11.55;89.87;98358.97;5034872;28;20098;-87
2022/10/22 03:08:17;;;;;;;9.93;7.88;;;;;;;11.46;90.31;98339.19;5051334;28;20044;-87
2022/10/22 03:10:43;;;;;;;31.05;15.20;;;;;;;10.77;93.17;98321.94;5028799;28;20432;-86
2022/10/22 03:13:08;;;;;;;13.25;8.63;;;;;;;11.12;92.83;98354.06;5034996;28;20459;-87
2022/10/22 03:15:34;;;;;;;21.77;15.38;;;;;;;10.83;93.50;98352.94;5053747;28;20531;-86
2022/10/22 03:17:59;;;;;;;12.82;9.05;;;;;;;11.44;90.53;98368.03;5029363;28;20040;-87
2022/10/22 03:20:25;;;;;;;13.85;9.20;;;;;;;10.97;90.76;98311.31;5050077;28;20021;-86
2022/10/22 03:22:51;;;;;;;15.70;11.75;;;;;;;10.66;94.68;98347.00;5045398;28;20071;-86
2022/10/22 03:25:20;;;;;;;11.48;9.48;;;;;;;11.31;91.20;98373.88;5045420;28;20032;-86
2022/10/22 03:27:46;;;;;;;13.77;8.82;;;;;;;11.53;89.72;98379.00;5031862;28;20035;-86
2022/10/22 03:30:11;;;;;;;14.60;11.25;;;;;;;11.01;89.25;98297.16;5029534;28;20045;-86
2022/10/22 03:32:37;;;;;;;13.70;10.43;;;;;;;11.25;90.12;98351.69;5043049;28;20029;-87
2022/10/22 03:35:05;;;;;;;20.65;14.65;;;;;;;11.10;90.48;98369.53;5023806;28;20058;-86
2022/10/22 03:37:31;;;;;;;14.40;9.75;;;;;;;11.23;91.03;98371.72;5050045;28;20032;-86
2022/10/22 03:39:57;;;;;;;14.00;9.27;;;;;;;11.05;89.89;98334.84;5057354;28;20451;-86
2022/10/22 03:42:23;;;;;;;12.52;9.82;;;;;;;11.32;89.86;98373.63;5025318;28;20068;-86
2022/10/22 03:44:48;;;;;;;10.80;8.98;;;;;;;11.18;89.50;98361.81;5067409;28;20096;-86
2022/10/22 03:47:14;;;;;;;11.43;8.20;;;;;;;11.41;89.18;98397.94;5046153;28;20132;-86
2022/10/22 03:49:39;;;;;;;13.20;9.35;;;;;;;11.37;89.37;98388.84;5049071;28;20025;-86
2022/10/22 03:52:10;;;;;;;11.90;9.07;;;;;;;11.45;88.91;98404.38;5031375;28;20537;-86
2022/10/22 03:54:36;;;;;;;14.05;9.25;;;;;;;11.25;89.19;98380.28;5050610;28;20025;-86
2022/10/22 03:57:03;;;;;;;13.98;10.65;;;;;;;10.67;90.41;98346.72;5026147;28;20033;-86
2022/10/22 03:59:36;;;;;;;11.88;8.30;;;;;;;11.25;89.40;98381.06;5032216;28;20037;-86
2022/10/22 04:02:02;;;;;;;9.93;8.05;;;;;;;11.00;89.35;98340.16;5049105;28;20018;-86
2022/10/22 04:04:28;;;;;;;11.35;8.00;;;;;;;11.04;89.38;98355.41;5025676;28;20064;-86
2022/10/22 04:06:53;;;;;;;10.90;8.82;;;;;;;11.15;90.28;98389.06;5050378;28;20365;-86
2022/10/22 04:09:19;;;;;;;11.35;9.43;;;;;;;11.19;90.32;98397.34;5030080;28;20029;-86
2022/10/22 04:11:44;;;;;;;10.07;7.78;;;;;;;10.97;89.91;98354.84;5029911;28;20033;-86
2022/10/22 04:14:10;;;;;;;9.45;8.38;;;;;;;11.41;89.57;98407.81;5043489;28;20048;-86
2022/10/22 04:16:38;;;;;;;11.98;8.57;;;;;;;11.38;89.41;98405.69;5031964;28;20025;-86
2022/10/22 04:19:04;;;;;;;11.43;8.15;;;;;;;11.30;89.69;98401.66;5034292;28;20035;-87
2022/10/22 04:21:29;;;;;;;12.18;8.98;;;;;;;11.31;89.34;98397.94;5034419;28;20134;-86
2022/10/22 04:23:55;;;;;;;11.40;8.30;;;;;;;11.32;89.30;98403.00;5018634;28;20029;-86
2022/10/22 04:26:20;;;;;;;11.43;9.35;;;;;;;11.19;89.83;98416.06;5030741;28;20044;-86
2022/10/22 04:28:49;;;;;;;10.38;8.13;;;;;;;11.45;90.04;98428.41;5050547;28;20114;-86
2022/10/22 04:31:17;;;;;;;9.90;8.15;;;;;;;11.41;89.12;98421.19;5049194;28;20378;-86
2022/10/22 04:33:43;;;;;;;9.68;8.60;;;;;;;11.42;89.63;98418.28;5047671;28;20036;-86
2022/10/22 04:36:14;;;;;;;9.25;7.32;;;;;;;11.27;90.03;98426.22;5047420;28;20040;-86
2022/10/22 04:38:42;;;;;;;10.90;8.35;;;;;;;11.27;90.13;98420.88;5048604;28;20021;-86
2022/10/22 04:41:15;;;;;;;12.82;8.60;;;;;;;11.43;89.83;98421.72;5023577;28;20028;-86
2022/10/22 04:43:42;;;;;;;10.93;7.65;;;;;;;11.29;89.44;98405.41;5029510;28;20040;-86
2022/10/22 04:46:08;;;;;;;11.25;8.50;;;;;;;11.14;90.93;98408.00;5051231;28;20050;-86
2022/10/22 04:48:39;;;;;;;18.95;13.32;;;;;;;11.21;91.06;98428.09;5026210;28;20434;-86
2022/10/22 04:51:05;;;;;;;20.45;14.60;;;;;;;10.63;95.94;98414.22;5050348;28;20029;-86
2022/10/22 04:53:34;;;;;;;11.10;8.40;;;;;;;11.11;91.21;98421.91;5025410;28;20401;-86
2022/10/22 04:56:20;;;;;;;13.43;9.35;;;;;;;11.17;91.94;98423.53;5049010;28;20109;-86
2022/10/22 04:58:55;;;;;;;9.45;7.78;;;;;;;11.39;90.19;98413.44;5041111;28;20052;-86
2022/10/22 05:01:26;;;;;;;11.85;8.13;;;;;;;11.16;89.75;98368.53;5047022;28;20374;-86
2022/10/22 05:03:53;;;;;;;12.20;8.15;;;;;;;11.12;89.69;98373.56;5046086;28;20017;-86
2022/10/22 05:06:19;;;;;;;9.20;7.88;;;;;;;11.08;92.00;98403.72;5043284;28;20396;-86
2022/10/22 05:08:46;;;;;;;11.15;8.60;;;;;;;11.15;91.94;98402.44;5029694;28;20033;-86
2022/10/22 05:11:16;;;;;;;23.77;15.88;;;;;;;11.10;92.55;98412.28;5026474;28;20029;-86
2022/10/22 05:13:41;;;;;;;9.75;8.15;;;;;;;11.16;91.01;98401.34;5047504;28;20028;-86
2022/10/22 05:16:07;;;;;;;21.38;14.85;;;;;;;11.07;92.65;98402.13;5039304;28;20492;-86
2022/10/22 05:18:37;;;;;;;25.73;16.30;;;;;;;10.91;94.63;98405.81;5026959;28;20029;-85
2022/10/22 05:21:04;;;;;;;29.02;17.98;;;;;;;10.78;94.85;98379.59;5044731;28;20021;-86
2022/10/22 05:23:30;;;;;;;11.25;9.38;;;;;;;10.95;94.29;98412.22;5044356;28;20034;-87
2022/10/22 05:25:55;;;;;;;13.05;10.90;;;;;;;10.46;94.40;98342.38;5046596;28;20940;-87
2022/10/22 05:28:20;;;;;;;11.05;8.13;;;;;;;10.80;92.75;98364.13;5017525;28;20119;-86
2022/10/22 05:30:58;;;;;;;12.38;9.15;;;;;;;10.81;93.57;98406.56;5025552;28;20025;-87
2022/10/22 05:33:23;;;;;;;23.73;17.02;;;;;;;10.43;97.50;98405.06;5065091;28;20056;-86
2022/10/22 05:35:49;;;;;;;16.48;10.27;;;;;;;10.43;98.67;98426.41;5026228;28;20068;-87
2022/10/22 05:38:15;;;;;;;13.57;9.48;;;;;;;11.09;92.80;98429.38;5035682;28;20485;-87
2022/10/22 05:40:41;;;;;;;11.68;8.30;;;;;;;11.03;90.72;98398.41;5047858;28;20023;-87
2022/10/22 05:43:06;;;;;;;10.43;7.35;;;;;;;11.26;91.00;98438.81;5049845;28;20514;-87
2022/10/22 05:45:38;;;;;;;12.25;7.50;;;;;;;11.19;89.98;98416.88;5025726;28;20127;-87
2022/10/22 05:48:04;;;;;;;18.45;14.30;;;;;;;11.17;90.75;98434.22;5039440;28;20032;-86
2022/10/22 05:50:30;;;;;;;14.27;10.18;;;;;;;11.15;90.45;98418.47;5028409;28;20037;-87
2022/10/22 05:52:55;;;;;;;22.95;14.95;;;;;;;10.96;91.54;98412.00;5024287;28;20053;-87
2022/10/22 05:55:21;;;;;;;9.50;8.50;;;;;;;11.07;90.89;98418.94;5049595;28;20040;-87
2022/10/22 05:57:48;;;;;;;28.13;17.27;;;;;;;10.67;93.83;98415.31;5031494;28;20029;-86
2022/10/22 06:00:14;;;;;;;22.70;13.85;;;;;;;10.91;92.44;98429.84;5020135;28;20064;-86
2022/10/22 06:02:39;;;;;;;9.90;8.45;;;;;;;10.95;92.91;98445.09;5018649;28;20064;-86
2022/10/22 06:05:04;;;;;;;13.77;9.85;;;;;;;11.01;91.75;98443.22;5016411;28;20386;-86
2022/10/22 06:07:32;;;;;;;12.15;8.95;;;;;;;10.95;92.66;98447.75;5046175;28;20507;-86
2022/10/22 06:09:58;;;;;;;27.42;18.10;;;;;;;10.42;96.05;98456.78;5034249;28;20049;-86
2022/10/22 06:12:23;;;;;;;12.40;9.07;;;;;;;10.42;94.70;98422.09;5032489;28;20036;-86
2022/10/22 06:14:49;;;;;;;27.75;19.42;;;;;;;10.47;96.10;98456.81;5058265;28;20041;-86
2022/10/22 06:17:14;;;;;;;12.45;9.32;;;;;;;10.98;92.33;98465.13;5048401;28;20493;-85
2022/10/22 06:19:41;;;;;;;25.08;16.77;;;;;;;10.56;93.10;98422.47;5016092;28;20116;-86
2022/10/22 06:22:06;;;;;;;12.32;9.30;;;;;;;11.05;91.76;98463.03;5053337;28;20469;-86
2022/10/22 06:24:31;;;;;;;16.40;10.95;;;;;;;10.78;94.12;98459.69;5052048;28;20057;-86
2022/10/22 06:26:57;;;;;;;11.30;8.15;;;;;;;11.12;90.90;98464.38;5035921;28;20938;-86
2022/10/22 06:29:22;;;;;;;14.63;11.02;;;;;;;10.35;94.81;98416.19;5017906;28;20068;-86
2022/10/22 06:31:48;;;;;;;22.63;17.05;;;;;;;10.19;94.66;98405.69;5050489;28;20037;-86
2022/10/22 06:34:14;;;;;;;26.88;16.30;;;;;;;10.44;97.13;98480.56;5050753;28;20392;-86
2022/10/22 06:36:41;;;;;;;23.33;16.52;;;;;;;10.39;95.96;98456.50;5047705;28;20025;-86
2022/10/22 06:39:13;;;;;;;15.75;12.32;;;;;;;10.60;94.57;98476.91;5033398;28;20048;-86
2022/10/22 06:41:38;;;;;;;21.17;15.70;;;;;;;10.15;98.51;98473.94;5020037;28;20029;-86
2022/10/22 06:44:04;;;;;;;22.05;17.40;;;;;;;10.06;99.98;98484.22;5043596;28;20105;-87
2022/10/22 06:46:30;;;;;;;15.02;11.45;;;;;;;10.44;93.87;98449.31;5035730;28;20037;-86
2022/10/22 06:49:01;;;;;;;14.02;10.32;;;;;;;11.00;92.66;98516.41;5031556;28;20032;-86
2022/10/22 06:51:27;;;;;;;10.60;8.30;;;;;;;11.20;91.05;98498.59;5052889;28;20040;-86
2022/10/22 06:53:54;;;;;;;19.77;13.77;;;;;;;11.33;90.76;98510.69;5044700;28;20033;-87
2022/10/22 06:56:22;;;;;;;18.38;14.27;;;;;;;11.45;91.56;98529.97;5052775;28;20507;-87
2022/10/22 06:58:50;;;;;;;18.10;15.23;;;;;;;10.99;93.45;98501.44;5051503;28;20025;-86
2022/10/22 07:01:17;;;;;;;22.33;16.10;;;;;;;10.94;94.94;98525.44;5049706;28;20021;-86
2022/10/22 07:03:42;;;;;;;21.80;15.90;;;;;;;10.99;95.17;98536.16;5034442;28;20056;-86
2022/10/22 07:06:10;;;;;;;26.40;17.08;;;;;;;10.97;94.52;98506.22;5017392;28;20458;-86
2022/10/22 07:08:37;;;;;;;23.00;15.82;;;;;;;10.90;95.69;98530.50;5045929;28;20380;-86
2022/10/22 07:11:19;;;;;;;30.15;17.42;;;;;;;11.09;96.49;98538.88;5042044;28;20028;-86
2022/10/22 07:13:45;;;;;;;30.55;19.30;;;;;;;10.93;96.70;98529.19;5049316;28;20107;-87
2022/10/22 07:16:12;;;;;;;29.58;19.17;;;;;;;11.16;95.56;98547.47;5034169;28;20034;-87
2022/10/22 07:18:39;;;;;;;20.58;16.10;;;;;;;11.14;94.88;98528.22;5053653;28;20025;-87
2022/10/22 07:21:05;;;;;;;41.65;24.92;;;;;;;10.91;95.54;98500.06;5036971;28;20111;-87
2022/10/22 07:23:31;;;;;;;38.28;26.15;;;;;;;11.00;99.08;98562.63;5053446;28;20024;-87
2022/10/22 07:25:56;;;;;;;31.25;22.25;;;;;;;11.15;97.58;98570.72;5050759;28;20039;-86
2022/10/22 07:28:22;;;;;;;140.00;30.05;;;;;;;11.17;99.53;98567.78;5050756;28;20060;-86
2022/10/22 07:30:47;;;;;;;49.53;20.58;;;;;;;11.49;97.44;98579.16;5037031;28;20029;-87
2022/10/22 07:33:13;;;;;;;40.88;18.33;;;;;;;11.58;96.39;98580.25;5027363;28;20033;-87
2022/10/22 07:35:39;;;;;;;31.40;19.15;;;;;;;11.32;96.98;98523.25;5050326;28;20116;-87
2022/10/22 07:38:06;;;;;;;31.00;18.20;;;;;;;11.53;98.70;98556.19;5012854;28;20120;-87
2022/10/22 07:40:32;;;;;;;23.08;16.70;;;;;;;11.87;98.75;98570.78;5035408;28;20028;-87
2022/10/22 07:42:57;;;;;;;26.95;19.52;;;;;;;11.98;99.57;98580.44;5028584;28;20029;-87
2022/10/22 07:45:23;;;;;;;21.48;16.27;;;;;;;12.07;100.00;98587.94;5051094;28;20070;-87
2022/10/22 07:47:48;;;;;;;26.50;17.98;;;;;;;11.62;100.00;98524.44;5052036;28;20224;-87
2022/10/22 07:50:14;;;;;;;29.25;17.92;;;;;;;12.11;100.00;98589.03;5034160;28;20104;-86
2022/10/22 07:52:39;;;;;;;33.47;17.00;;;;;;;12.25;100.00;98585.59;5052045;28;20029;-86
2022/10/22 07:55:05;;;;;;;30.55;17.73;;;;;;;12.22;100.00;98580.75;5033142;28;20033;-86
2022/10/22 07:57:31;;;;;;;32.70;18.83;;;;;;;12.34;100.00;98599.25;5031342;28;20033;-86
2022/10/22 07:59:58;;;;;;;30.75;18.98;;;;;;;12.29;100.00;98567.13;5047758;28;20358;-87
2022/10/22 08:02:24;;;;;;;26.77;18.30;;;;;;;12.62;100.00;98596.06;5047271;28;20520;-86
2022/10/22 08:04:50;;;;;;;33.40;21.02;;;;;;;12.44;100.00;98570.63;5047319;28;20033;-87
2022/10/22 08:07:16;;;;;;;29.30;17.92;;;;;;;12.64;100.00;98584.00;5045181;28;20057;-87
2022/10/22 08:09:41;;;;;;;27.02;17.85;;;;;;;12.27;100.00;98524.56;5045571;28;20603;-86
2022/10/22 08:12:07;;;;;;;28.92;16.80;;;;;;;12.82;100.00;98609.44;5035013;28;20036;-87
2022/10/22 08:14:32;;;;;;;25.50;16.30;;;;;;;12.86;100.00;98599.81;5032502;28;20082;-86
2022/10/22 08:16:57;;;;;;;23.05;15.48;;;;;;;12.86;100.00;98609.72;5034283;28;20120;-86
2022/10/22 08:19:23;;;;;;;23.08;14.07;;;;;;;12.83;100.00;98592.28;5015064;28;20041;-86
2022/10/22 08:21:49;;;;;;;18.77;13.70;;;;;;;12.93;100.00;98611.03;5018053;28;20025;-87
2022/10/22 08:24:15;;;;;;;21.23;13.45;;;;;;;13.12;100.00;98616.69;5032805;28;20390;-87
2022/10/22 08:26:41;;;;;;;21.33;12.65;;;;;;;13.01;100.00;98590.94;5026494;28;20033;-87
2022/10/22 08:29:07;;;;;;;22.00;11.98;;;;;;;12.62;100.00;98548.66;5031506;28;20033;-87
2022/10/22 08:31:33;;;;;;;25.45;13.05;;;;;;;13.14;100.00;98611.84;5045952;28;20013;-87
2022/10/22 08:33:58;;;;;;;17.52;11.63;;;;;;;13.23;99.61;98605.69;5049471;28;20045;-88
2022/10/22 08:36:24;;;;;;;20.40;11.68;;;;;;;13.31;99.82;98604.31;5027689;28;20507;-88
2022/10/22 08:38:49;;;;;;;14.20;9.73;;;;;;;13.10;100.00;98584.00;5032134;28;20381;-87
2022/10/22 08:41:21;;;;;;;19.05;11.95;;;;;;;13.15;99.70;98602.75;5029747;28;20033;-87
2022/10/22 08:43:56;;;;;;;14.35;9.57;;;;;;;12.96;98.68;98554.25;5045226;28;20157;-87
2022/10/22 08:46:27;;;;;;;10.40;8.15;;;;;;;13.36;100.00;98613.16;5044119;28;20029;-87
2022/10/22 08:48:55;;;;;;;13.70;8.93;;;;;;;13.32;97.73;98592.53;5048201;28;20116;-87
2022/10/22 08:51:25;;;;;;;14.30;9.10;;;;;;;13.42;97.64;98595.97;5031903;28;20391;-87
2022/10/22 08:54:16;;;;;;;13.70;8.43;;;;;;;13.48;98.46;98610.97;5040682;28;20104;-87
2022/10/22 08:57:09;;;;;;;11.70;9.18;;;;;;;13.56;98.85;98609.63;5063672;28;20036;-87
2022/10/22 08:59:53;;;;;;;11.80;8.45;;;;;;;13.45;100.00;98626.81;5020185;28;20033;-87
2022/10/22 09:02:29;;;;;;;16.25;9.02;;;;;;;13.58;99.33;98631.59;5041717;28;20517;-87
2022/10/22 09:05:24;;;;;;;10.43;8.23;;;;;;;13.40;97.68;98592.78;5046871;28;20055;-87
2022/10/22 09:07:49;;;;;;;22.05;7.88;;;;;;;13.86;96.51;98646.25;5005417;28;20056;-87
2022/10/22 09:10:18;;;;;;;16.67;8.63;;;;;;;13.56;96.88;98628.41;5043707;28;20224;-87
2022/10/22 09:12:44;;;;;;;9.40;6.40;;;;;;;13.62;96.35;98629.16;5037230;28;20394;-87
2022/10/22 09:15:17;;;;;;;14.15;6.70;;;;;;;13.92;95.13;98654.00;5050056;28;20137;-87
2022/10/22 09:18:10;;;;;;;11.27;6.05;;;;;;;13.85;94.70;98655.38;5050126;28;20029;-88
2022/10/22 09:21:08;;;;;;;8.13;5.45;;;;;;;13.78;95.57;98654.88;5046902;28;20036;-87
2022/10/22 09:23:55;;;;;;;10.98;5.15;;;;;;;13.87;94.63;98659.38;5020822;28;20036;-86
2022/10/22 09:26:20;;;;;;;7.10;4.93;;;;;;;13.62;94.63;98629.97;5043630;28;20021;-86
2022/10/22 09:28:49;;;;;;;10.00;4.93;;;;;;;13.76;93.20;98649.75;5030489;28;20036;-85
2022/10/22 09:31:15;;;;;;;7.85;4.25;;;;;;;13.73;93.63;98654.88;5018903;28;20040;-84
2022/10/22 09:33:43;;;;;;;8.52;5.10;;;;;;;13.83;93.09;98671.75;5041910;28;20029;-85
2022/10/22 09:36:14;;;;;;;6.22;4.97;;;;;;;13.65;93.72;98653.56;5053182;28;20032;-85
2022/10/22 09:38:45;;;;;;;7.13;5.32;;;;;;;13.81;93.50;98671.22;5046786;28;20028;-85
2022/10/22 09:41:11;;;;;;;8.98;5.43;;;;;;;13.80;92.27;98644.66;5042333;28;20025;-85
2022/10/22 09:43:36;;;;;;;8.30;5.28;;;;;;;13.71;94.80;98665.91;5045118;28;20032;-85
2022/10/22 09:46:05;;;;;;;9.80;4.95;;;;;;;13.67;94.74;98661.34;5009689;28;20920;-85
2022/10/22 09:48:38;;;;;;;13.00;5.57;;;;;;;13.76;94.54;98670.44;5046424;28;20025;-85
2022/10/22 09:51:20;;;;;;;13.57;6.22;;;;;;;13.71;94.22;98673.94;5063116;28;20959;-85
2022/10/22 09:53:54;;;;;;;16.30;5.50;;;;;;;13.58;95.42;98671.81;5041524;28;20132;-85
2022/10/22 09:56:25;;;;;;;12.77;5.90;;;;;;;13.61;97.48;98676.63;5047629;28;20037;-85
2022/10/22 09:58:50;;;;;;;12.52;6.25;;;;;;;13.75;94.82;98668.81;5039142;28;20033;-84
2022/10/22 10:01:39;;;;;;;12.77;5.78;;;;;;;13.79;94.84;98669.88;5044227;28;20117;-85
2022/10/22 10:04:13;;;;;;;15.25;6.50;;;;;;;14.09;93.33;98681.31;5047831;28;20048;-85
2022/10/22 10:06:41;;;;;;;6.70;4.85;;;;;;;14.08;93.84;98668.97;5047845;28;20489;-85
2022/10/22 10:09:18;;;;;;;11.30;4.70;;;;;;;14.21;92.20;98664.88;5046658;28;20033;-85
2022/10/22 10:11:52;;;;;;;6.78;5.93;;;;;;;14.12;93.31;98674.59;5047752;28;20028;-84
2022/10/22 10:14:21;;;;;;;10.82;5.30;;;;;;;14.14;93.08;98657.13;5047272;28;20037;-85
2022/10/22 10:17:23;;;;;;;9.10;5.20;;;;;;;14.49;91.92;98677.66;5042471;28;20421;-85
2022/10/22 10:20:21;;;;;;;11.02;5.25;;;;;;;14.54;91.81;98664.19;5044481;28;20493;-84
2022/10/22 10:23:01;;;;;;;8.65;4.97;;;;;;;14.54;91.22;98656.16;5057967;28;20033;-84
2022/10/22 10:25:31;;;;;;;7.75;4.90;;;;;;;14.54;90.15;98661.50;5042093;28;20033;-85
2022/10/22 10:28:14;;;;;;;14.20;4.78;;;;;;;14.57;89.35;98652.09;5044513;28;20017;-85
2022/10/22 10:30:58;;;;;;;12.60;5.25;;;;;;;14.52;89.82;98674.41;5045678;28;20021;-84
2022/10/22 10:33:50;;;;;;;8.65;4.60;;;;;;;14.46;89.74;98669.34;5042640;28;20029;-84
2022/10/22 10:36:21;;;;;;;6.32;5.30;;;;;;;14.46;89.30;98675.50;5044328;28;20394;-85
2022/10/22 10:39:22;;;;;;;12.13;5.03;;;;;;;14.39;89.30;98672.34;5049984;28;20036;-83
2022/10/22 10:42:23;;;;;;;11.73;5.72;;;;;;;14.40;89.22;98663.19;5019714;28;20119;-84
2022/10/22 10:45:11;;;;;;;6.55;5.03;;;;;;;14.62;89.42;98674.34;5023086;28;20057;-83
2022/10/22 10:47:52;;;;;;;8.73;4.82;;;;;;;14.62;88.91;98684.28;5023825;28;20175;-85
2022/10/22 10:50:28;;;;;;;10.15;6.07;;;;;;;14.58;88.91;98661.75;5049632;28;20037;-83
2022/10/22 10:53:13;;;;;;;10.52;5.18;;;;;;;14.71;88.28;98671.88;5051404;28;20112;-85
2022/10/22 10:55:57;;;;;;;8.07;5.18;;;;;;;14.68;88.45;98689.34;5045012;28;20025;-83
2022/10/22 10:59:13;;;;;;;8.80;5.70;;;;;;;14.59;87.99;98693.69;5048821;28;20103;-83
2022/10/22 11:01:46;;;;;;;6.00;4.82;;;;;;;14.63;87.69;98685.91;5004712;28;20033;-83
2022/10/22 11:04:29;;;;;;;7.25;4.53;;;;;;;14.61;87.82;98688.84;5049491;28;20439;-85
2022/10/22 11:06:59;;;;;;;10.13;4.75;;;;;;;14.72;87.24;98695.75;5041382;28;20111;-84
2022/10/22 11:09:27;;;;;;;8.55;4.85;;;;;;;14.78;86.40;98700.03;5044185;28;20499;-85
2022/10/22 11:11:59;;;;;;;11.27;4.93;;;;;;;14.66;86.11;98675.38;5043621;28;20021;-83
2022/10/22 11:14:55;;;;;;;10.07;4.70;;;;;;;14.94;86.14;98706.09;5049869;28;20037;-83
2022/10/22 11:17:23;;;;;;;7.70;3.92;;;;;;;15.01;85.98;98693.16;5064980;28;20021;-83
2022/10/22 11:20:03;;;;;;;11.98;5.38;;;;;;;15.00;85.85;98696.94;5062578;28;20036;-84
2022/10/22 11:22:35;;;;;;;11.70;4.25;;;;;;;15.04;85.75;98684.53;5042619;28;20460;-83
2022/10/22 11:25:21;;;;;;;8.98;4.90;;;;;;;15.12;85.00;98693.88;5049860;28;20100;-83
2022/10/22 11:28:08;;;;;;;8.80;4.95;;;;;;;15.40;84.51;98685.00;5045387;28;20431;-83
2022/10/22 11:30:36;;;;;;;7.35;3.55;;;;;;;15.39;82.72;98678.03;5048179;28;20048;-83
2022/10/22 11:33:10;;;;;;;12.65;5.00;;;;;;;15.42;82.63;98685.56;5013579;28;20033;-84
2022/10/22 11:35:41;;;;;;;4.30;3.17;;;;;;;15.59;81.70;98702.09;5042120;28;20025;-84
2022/10/22 11:38:13;;;;;;;9.93;4.80;;;;;;;15.46;81.99;98670.47;5059606;28;20029;-84
2022/10/22 11:41:16;;;;;;;9.88;3.78;;;;;;;15.63;82.14;98692.38;5048296;28;20451;-83